Terminal Aerodrome Forecast
Issued by NWS Newport/Morehead City, NC

Home | Current Version | Previous Version | Graphics & Text | Print | Product List | Glossary On
Versions: 1 2 3 4 5 6 7 8 9 10 11 12 13 14 15 16 17 18 19 20 21
000
FTUS42 KMHX 311627 AAA
TAFEWN
TAF AMD
KEWN 311627Z 3116/0112 10005KT P6SM SHRA BKN050 OVC090
      TEMPO 3117/3118 2SM SHRA OVC006
     FM312100 15005KT P6SM VCSH BKN024
      TEMPO 0102/0106 BKN010
     FM010600 00000KT 2SM BR OVC004=

USA.gov is the U.S. government's official web portal to all federal, state and local government web resources and services.